Time;durP1;ratioP1;P1;durP2;ratioP2;P2;SDS_P1;SDS_P2;PMS_P1;PMS_P2;Temp;Humidity;BMP_temperature;BMP_pressure;BME280_temperature;BME280_humidity;BME280_pressure;Samples;Min_cycle;Max_cycle;Signal;HPM_P1;HPM_P2
2021/12/13 00:02:18;;;;;;;30.45;13.70;;;;;;;0.74;100.00;100374.53;6299132;28;20451;-73
2021/12/13 00:05:31;;;;;;;33.67;14.32;;;;;;;0.76;100.00;100375.38;6299300;28;20041;-74
2021/12/13 00:08:33;;;;;;;;;;;;;;;0.63;100.00;100367.88;6299564;28;20097;-73
2021/12/13 00:11:41;;;;;;;33.92;12.93;;;;;;;0.68;100.00;100371.19;6299180;28;19964;-74
2021/12/13 00:14:49;;;;;;;33.45;13.68;;;;;;;0.50;100.00;100362.06;6297775;28;20453;-73
2021/12/13 00:17:52;;;;;;;31.13;12.93;;;;;;;0.78;100.00;100370.19;6297798;28;20546;-73
2021/12/13 00:20:59;;;;;;;35.10;14.70;;;;;;;0.73;100.00;100367.69;6298726;28;20044;-74
2021/12/13 00:24:05;;;;;;;40.58;13.30;;;;;;;0.64;100.00;100378.13;6297629;28;20482;-74
2021/12/13 00:27:14;;;;;;;35.55;14.95;;;;;;;0.62;100.00;100371.28;6298618;28;20055;-73
2021/12/13 00:30:18;;;;;;;36.25;14.80;;;;;;;0.75;100.00;100381.38;6298382;28;20114;-74
2021/12/13 00:33:43;;;;;;;38.83;14.73;;;;;;;0.64;100.00;100387.53;6299047;28;20133;-73
2021/12/13 00:37:06;;;;;;;36.05;15.00;;;;;;;0.84;100.00;100392.38;6297359;28;20462;-73
2021/12/13 00:40:22;;;;;;;35.25;15.60;;;;;;;0.56;100.00;100390.22;6298315;28;20127;-73
2021/12/13 00:43:33;;;;;;;27.63;11.60;;;;;;;0.71;100.00;100392.56;6298698;28;20050;-73
2021/12/13 00:46:35;;;;;;;35.90;15.32;;;;;;;0.83;100.00;100400.97;6298093;28;20037;-73
2021/12/13 00:49:40;;;;;;;36.40;14.15;;;;;;;0.82;100.00;100402.66;6298320;28;20047;-73
2021/12/13 00:52:43;;;;;;;38.03;14.55;;;;;;;0.66;100.00;100396.06;6297949;28;20032;-73
2021/12/13 00:55:45;;;;;;;37.40;15.13;;;;;;;0.71;100.00;100410.53;6296735;28;20477;-74
2021/12/13 00:58:48;;;;;;;41.75;15.40;;;;;;;0.57;100.00;100403.03;6297915;28;20081;-74
2021/12/13 01:01:55;;;;;;;43.30;15.65;;;;;;;0.70;100.00;100410.56;6297904;28;20458;-74
2021/12/13 01:05:08;;;;;;;31.05;14.50;;;;;;;0.69;100.00;100414.00;6330330;28;20118;-73
2021/12/13 01:08:08;;;;;;;;;;;;;;;0.64;100.00;100408.06;6296905;28;20066;-73
2021/12/13 01:11:16;;;;;;;25.50;11.18;;;;;;;0.42;100.00;100402.41;6296275;28;19967;-73
2021/12/13 01:14:40;;;;;;;31.88;12.75;;;;;;;0.56;100.00;100409.03;6297610;28;20051;-73
2021/12/13 01:21:29;;;;;;;35.65;13.80;;;;;;;0.62;100.00;100415.81;6297350;28;20044;-73
2021/12/13 01:28:02;;;;;;;32.08;12.25;;;;;;;0.58;100.00;100416.75;6297068;28;20036;-73
2021/12/13 01:31:15;;;;;;;38.13;15.10;;;;;;;0.62;100.00;100422.66;6295772;28;20056;-74
2021/12/13 01:34:17;;;;;;;30.75;12.63;;;;;;;0.32;100.00;100430.75;6295811;28;20400;-74
2021/12/13 01:37:18;;;;;;;37.28;15.73;;;;;;;0.29;100.00;100432.50;6297081;28;20510;-73
2021/12/13 01:40:27;;;;;;;39.97;15.73;;;;;;;0.21;100.00;100432.63;6296803;28;20566;-73
2021/12/13 01:43:31;;;;;;;32.92;14.25;;;;;;;0.23;100.00;100423.19;6296999;28;20471;-73
2021/12/13 01:46:37;;;;;;;31.25;13.77;;;;;;;0.39;100.00;100431.53;6295432;28;20119;-73
2021/12/13 01:49:42;;;;;;;34.13;13.18;;;;;;;0.35;100.00;100429.88;6295579;28;20481;-74
2021/12/13 01:52:46;;;;;;;39.33;12.68;;;;;;;0.36;100.00;100437.56;6295356;28;20040;-73
2021/12/13 01:55:48;;;;;;;37.60;15.15;;;;;;;0.37;100.00;100440.97;6296614;28;20385;-73
2021/12/13 01:58:50;;;;;;;36.50;14.15;;;;;;;0.28;100.00;100439.38;6295400;28;20052;-73
2021/12/13 02:01:51;;;;;;;34.00;14.05;;;;;;;0.40;100.00;100443.50;6295322;28;20119;-73
2021/12/13 02:05:17;;;;;;;33.95;14.18;;;;;;;0.42;100.00;100443.50;6295334;28;20036;-73
2021/12/13 02:08:24;;;;;;;40.63;14.00;;;;;;;0.42;100.00;100446.06;6295757;28;20078;-73
2021/12/13 02:11:34;;;;;;;31.42;13.10;;;;;;;0.48;100.00;100448.53;6296265;28;20072;-73
2021/12/13 02:14:35;;;;;;;27.50;11.70;;;;;;;0.32;100.00;100453.03;6295225;28;20114;-73
2021/12/13 02:17:38;;;;;;;36.78;14.98;;;;;;;0.48;100.00;100457.09;6295029;28;20049;-72
2021/12/13 02:20:42;;;;;;;35.08;13.77;;;;;;;0.37;100.00;100453.78;6296385;28;20051;-72
2021/12/13 02:23:46;;;;;;;30.90;12.98;;;;;;;0.37;100.00;100451.22;6295085;28;20514;-72
2021/12/13 02:26:48;;;;;;;22.35;9.98;;;;;;;0.33;100.00;100457.28;6296196;28;20055;-72
2021/12/13 02:29:51;;;;;;;34.47;14.50;;;;;;;0.53;100.00;100462.16;6296273;28;20390;-73
2021/12/13 02:32:53;;;;;;;32.13;12.35;;;;;;;0.47;100.00;100455.38;6295833;28;20044;-72
2021/12/13 02:36:08;;;;;;;32.10;13.57;;;;;;;0.44;100.00;100463.13;6296138;28;20082;-73
2021/12/13 02:39:13;;;;;;;33.10;13.15;;;;;;;0.33;100.00;100473.53;6294842;28;20048;-72
2021/12/13 02:42:17;;;;;;;28.45;12.18;;;;;;;0.33;100.00;100468.41;6296064;28;20044;-72
2021/12/13 02:45:28;;;;;;;32.00;12.50;;;;;;;0.43;100.00;100475.97;6295884;28;20528;-72
2021/12/13 02:48:34;;;;;;;27.10;10.93;;;;;;;0.30;100.00;100470.16;6295935;28;20041;-72
2021/12/13 02:51:41;;;;;;;34.05;13.07;;;;;;;0.53;100.00;100469.84;6295848;28;20045;-74
2021/12/13 02:54:46;;;;;;;28.58;10.93;;;;;;;0.38;100.00;100470.91;6294954;28;20058;-73
2021/12/13 02:57:51;;;;;;;26.75;11.00;;;;;;;0.29;100.00;100468.44;6294657;28;20531;-72
2021/12/13 03:01:09;;;;;;;31.13;12.40;;;;;;;0.23;100.00;100473.66;6295921;28;20083;-73
2021/12/13 03:04:14;;;;;;;28.25;10.20;;;;;;;0.08;100.00;100469.56;6294338;28;20538;-72
2021/12/13 03:07:19;;;;;;;28.42;11.73;;;;;;;0.28;100.00;100475.31;6295778;28;20382;-73
2021/12/13 03:10:25;;;;;;;29.75;11.50;;;;;;;0.19;100.00;100478.00;6295721;28;20052;-73
2021/12/13 03:13:29;;;;;;;24.40;10.95;;;;;;;0.19;100.00;100472.84;6294474;28;20036;-72
2021/12/13 03:17:07;;;;;;;23.85;9.68;;;;;;;0.10;100.00;100478.09;6295573;28;20094;-73
2021/12/13 03:20:26;;;;;;;25.20;10.48;;;;;;;0.08;100.00;100479.81;6297808;28;20075;-73
2021/12/13 03:23:46;;;;;;;22.85;10.52;;;;;;;0.07;100.00;100480.69;6300223;28;20390;-72
2021/12/13 03:26:50;;;;;;;26.75;10.90;;;;;;;0.03;100.00;100474.75;6298784;28;20045;-73
2021/12/13 03:29:59;;;;;;;27.70;11.13;;;;;;;0.18;100.00;100476.28;6300142;28;20040;-73
2021/12/13 03:33:12;;;;;;;31.33;12.00;;;;;;;-0.06;100.00;100473.13;6299695;28;20053;-73
2021/12/13 03:36:16;;;;;;;30.45;10.65;;;;;;;0.14;100.00;100477.19;6298777;28;20040;-72
2021/12/13 03:39:22;;;;;;;31.02;11.30;;;;;;;0.11;100.00;100480.63;6298619;28;20052;-72
2021/12/13 03:42:34;;;;;;;30.08;10.15;;;;;;;0.22;100.00;100477.94;6299774;28;20090;-72
2021/12/13 03:45:44;;;;;;;27.63;10.32;;;;;;;0.22;100.00;100477.09;6298454;28;20427;-73
2021/12/13 03:48:48;;;;;;;26.15;11.75;;;;;;;0.15;100.00;100478.91;6298433;28;20043;-73
2021/12/13 03:51:56;;;;;;;34.60;11.77;;;;;;;0.10;100.00;100489.19;6299420;28;20048;-74
2021/12/13 03:55:00;;;;;;;25.50;10.70;;;;;;;0.38;100.00;100492.28;6299480;28;20409;-74
2021/12/13 03:58:05;;;;;;;32.55;10.75;;;;;;;0.16;100.00;100485.72;6299342;28;20083;-74
2021/12/13 04:01:14;;;;;;;25.52;9.88;;;;;;;0.05;100.00;100492.69;6298275;28;20048;-73
2021/12/13 04:04:28;;;;;;;24.48;9.65;;;;;;;0.09;100.00;100495.19;6299139;28;20086;-72
2021/12/13 04:07:36;;;;;;;29.90;12.05;;;;;;;0.07;100.00;100486.66;6299543;28;20048;-73
2021/12/13 04:10:43;;;;;;;27.38;10.65;;;;;;;0.38;100.00;100487.16;6299134;28;20179;-73
2021/12/13 04:13:53;;;;;;;28.23;11.52;;;;;;;0.28;100.00;100487.28;6299186;28;20041;-72
2021/12/13 04:17:33;;;;;;;30.90;12.32;;;;;;;0.19;100.00;100495.97;6297728;28;20123;-72
2021/12/13 04:20:37;;;;;;;30.40;11.63;;;;;;;0.28;100.00;100502.69;6297707;28;20046;-73
2021/12/13 04:23:40;;;;;;;33.33;12.20;;;;;;;0.15;100.00;100505.41;6298852;28;20120;-74
2021/12/13 04:26:50;;;;;;;24.83;10.23;;;;;;;0.21;100.00;100494.22;6297269;28;20086;-73
2021/12/13 04:29:54;;;;;;;40.72;12.68;;;;;;;0.35;100.00;100494.91;6297491;28;20064;-74
2021/12/13 04:32:59;;;;;;;28.10;12.35;;;;;;;0.27;100.00;100503.53;6297906;28;20049;-73
2021/12/13 04:36:22;;;;;;;32.53;12.00;;;;;;;0.04;100.00;100504.66;6298459;28;20045;-73
2021/12/13 04:39:34;;;;;;;27.08;11.15;;;;;;;0.19;100.00;100508.78;6297166;28;20135;-73
2021/12/13 04:42:35;;;;;;;30.40;12.02;;;;;;;0.28;100.00;100506.09;6298342;28;20050;-73
2021/12/13 04:45:38;;;;;;;31.98;11.55;;;;;;;0.19;100.00;100508.78;6298283;28;20040;-72
2021/12/13 04:48:45;;;;;;;32.08;10.68;;;;;;;0.16;100.00;100504.50;6297204;28;20089;-72
2021/12/13 04:51:54;;;;;;;24.55;10.40;;;;;;;0.26;100.00;100514.69;6297037;28;20465;-72
2021/12/13 04:54:56;;;;;;;29.00;10.48;;;;;;;0.12;100.00;100514.84;6298085;28;20059;-72
2021/12/13 04:58:00;;;;;;;28.27;11.07;;;;;;;0.27;100.00;100512.13;6298311;28;20394;-73
2021/12/13 05:01:05;;;;;;;27.38;9.98;;;;;;;0.13;100.00;100511.41;6296591;28;20044;-73
2021/12/13 05:04:08;;;;;;;22.42;9.70;;;;;;;0.16;100.00;100512.22;6298107;28;20041;-72
2021/12/13 05:07:09;;;;;;;22.15;10.15;;;;;;;0.25;100.00;100520.69;6297573;28;20390;-73
2021/12/13 05:10:13;;;;;;;25.70;10.10;;;;;;;0.07;100.00;100525.16;6296550;28;20036;-72
2021/12/13 05:13:21;;;;;;;23.13;10.25;;;;;;;0.11;100.00;100524.25;6297474;28;20047;-73
2021/12/13 05:16:35;;;;;;;27.13;10.10;;;;;;;0.10;100.00;100525.13;6296410;28;20040;-72
2021/12/13 05:19:45;;;;;;;25.52;10.45;;;;;;;0.17;100.00;100525.91;6297406;28;20045;-73
2021/12/13 05:23:07;;;;;;;17.80;8.40;;;;;;;0.23;100.00;100537.81;6296462;28;20444;-73
2021/12/13 05:26:08;;;;;;;18.67;8.82;;;;;;;0.23;100.00;100532.69;6297660;28;20040;-72
2021/12/13 05:29:31;;;;;;;24.67;9.70;;;;;;;0.03;100.00;100544.00;6279696;28;20047;-73
2021/12/13 05:32:38;;;;;;;24.02;8.77;;;;;;;0.25;100.00;100544.66;6297070;28;20048;-72
2021/12/13 05:35:43;;;;;;;23.00;9.55;;;;;;;0.11;100.00;100541.38;6295673;28;20044;-72
2021/12/13 05:38:47;;;;;;;18.17;8.77;;;;;;;-0.05;100.00;100550.94;6312815;28;20048;-72
2021/12/13 05:42:13;;;;;;;23.17;9.68;;;;;;;0.00;100.00;100549.19;6295780;28;20036;-73
2021/12/13 05:45:19;;;;;;;19.88;8.88;;;;;;;0.24;100.00;100555.78;6294800;28;20432;-73
2021/12/13 05:48:35;;;;;;;19.27;9.48;;;;;;;0.09;100.00;100550.81;6295440;28;20443;-72
2021/12/13 05:51:43;;;;;;;21.85;8.93;;;;;;;-0.04;100.00;100552.66;6296804;28;20082;-73
2021/12/13 05:54:50;;;;;;;21.38;9.65;;;;;;;-0.03;100.00;100565.44;6296617;28;20129;-73
2021/12/13 05:57:51;;;;;;;20.25;7.47;;;;;;;0.04;100.00;100552.56;6296702;28;20052;-72
2021/12/13 06:00:53;;;;;;;18.83;9.10;;;;;;;0.02;100.00;100554.28;6296523;28;20070;-73
2021/12/13 06:04:22;;;;;;;16.77;8.45;;;;;;;0.08;100.00;100561.94;6296511;28;20102;-73
2021/12/13 06:07:29;;;;;;;16.75;7.68;;;;;;;0.16;100.00;100560.13;6291691;28;20140;-73
2021/12/13 06:10:51;;;;;;;21.90;8.43;;;;;;;0.11;100.00;100565.31;6296465;28;20552;-74
2021/12/13 06:13:57;;;;;;;18.88;8.13;;;;;;;0.18;100.00;100574.66;6295142;28;20040;-72
2021/12/13 06:17:14;;;;;;;15.52;7.22;;;;;;;0.21;100.00;100568.66;6295141;28;20048;-72
2021/12/13 06:20:22;;;;;;;15.05;7.05;;;;;;;0.11;100.00;100567.03;6301234;28;20489;-72
2021/12/13 06:23:28;;;;;;;17.27;7.78;;;;;;;0.38;100.00;100566.75;6295048;28;20556;-73
2021/12/13 06:26:30;;;;;;;21.45;8.57;;;;;;;0.32;100.00;100573.66;6296482;28;20048;-73
2021/12/13 06:29:59;;;;;;;12.63;6.68;;;;;;;0.39;100.00;100575.28;6303218;28;20051;-72
2021/12/13 06:33:01;;;;;;;17.83;7.97;;;;;;;0.39;100.00;100576.16;6295082;28;20055;-72
2021/12/13 06:36:03;;;;;;;18.05;8.05;;;;;;;0.25;100.00;100583.16;6295980;28;20044;-73
2021/12/13 06:39:09;;;;;;;13.87;5.63;;;;;;;0.30;100.00;100575.41;6278303;28;20045;-73
2021/12/13 06:42:13;;;;;;;20.65;8.40;;;;;;;0.60;100.00;100584.50;6296095;28;20037;-72
2021/12/13 06:45:21;;;;;;;17.20;7.80;;;;;;;0.43;100.00;100579.53;6296053;28;20103;-72
2021/12/13 06:48:38;;;;;;;16.30;8.38;;;;;;;0.42;100.00;100592.41;6304950;28;20436;-72
2021/12/13 06:52:03;;;;;;;19.52;9.60;;;;;;;0.51;100.00;100590.56;6296818;28;20045;-72
2021/12/13 06:55:11;;;;;;;21.25;9.27;;;;;;;0.50;100.00;100599.16;6311049;28;20404;-72
2021/12/13 06:58:13;;;;;;;18.48;7.82;;;;;;;0.55;100.00;100599.94;6326753;28;20440;-73
2021/12/13 07:01:14;;;;;;;14.80;7.13;;;;;;;0.43;100.00;100607.75;6323461;28;20062;-73
2021/12/13 07:04:14;;;;;;;18.38;7.38;;;;;;;0.70;100.00;100614.34;6313152;28;20098;-73
2021/12/13 07:07:18;;;;;;;20.73;7.55;;;;;;;0.85;100.00;100615.03;6308126;28;20089;-73
2021/12/13 07:10:26;;;;;;;16.15;7.85;;;;;;;0.70;100.00;100603.19;6320053;28;20036;-73
2021/12/13 07:13:48;;;;;;;16.48;6.63;;;;;;;0.68;100.00;100608.38;6314767;28;20454;-73
2021/12/13 07:16:52;;;;;;;13.98;6.82;;;;;;;0.67;100.00;100622.06;6309407;28;20070;-72
2021/12/13 07:19:54;;;;;;;19.83;7.75;;;;;;;0.85;100.00;100622.75;6315527;28;20032;-74
2021/12/13 07:22:58;;;;;;;17.10;7.63;;;;;;;0.79;100.00;100621.09;6286630;28;20043;-74
2021/12/13 07:26:01;;;;;;;22.23;9.18;;;;;;;0.93;100.00;100618.34;6324158;28;20481;-73
2021/12/13 07:29:07;;;;;;;17.50;8.55;;;;;;;0.61;100.00;100622.13;6324495;28;20126;-72
2021/12/13 07:32:50;;;;;;;22.17;10.70;;;;;;;0.83;100.00;100627.03;6323535;28;20098;-72
2021/12/13 07:35:53;;;;;;;15.98;7.15;;;;;;;0.89;100.00;100637.25;6249293;28;20444;-73
2021/12/13 07:38:58;;;;;;;22.10;8.07;;;;;;;0.87;100.00;100633.84;6307181;28;20044;-72
2021/12/13 07:42:05;;;;;;;18.08;8.57;;;;;;;0.72;100.00;100638.28;6323589;28;20042;-72
2021/12/13 07:45:25;;;;;;;16.13;8.02;;;;;;;0.76;100.00;100632.25;6324547;28;20051;-72
2021/12/13 07:48:41;;;;;;;16.65;7.72;;;;;;;0.82;100.00;100644.16;6324538;28;20092;-72
2021/12/13 07:51:50;;;;;;;17.52;7.97;;;;;;;1.13;100.00;100644.66;6323294;28;20043;-73
2021/12/13 07:54:51;;;;;;;18.80;7.68;;;;;;;0.98;100.00;100648.25;6323404;28;20046;-73
2021/12/13 07:57:54;;;;;;;17.17;8.30;;;;;;;1.12;100.00;100649.81;6323075;28;20047;-73
2021/12/13 08:01:05;;;;;;;19.98;8.52;;;;;;;1.08;100.00;100659.28;6323233;28;20036;-73
2021/12/13 08:04:14;;;;;;;47.45;20.40;;;;;;;0.99;100.00;100646.56;6324447;28;20044;-73
2021/12/13 08:07:21;;;;;;;20.15;8.85;;;;;;;1.09;100.00;100658.41;6323319;28;20506;-72
2021/12/13 08:10:24;;;;;;;17.23;7.90;;;;;;;1.08;100.00;100661.84;6324044;28;20036;-73
2021/12/13 08:13:29;;;;;;;19.75;8.00;;;;;;;1.03;100.00;100658.50;6324049;28;20040;-73
2021/12/13 08:16:34;;;;;;;19.08;8.45;;;;;;;1.26;100.00;100675.34;6323826;28;20104;-73
2021/12/13 08:19:36;;;;;;;19.23;7.75;;;;;;;1.33;100.00;100671.81;6322727;28;20036;-73
2021/12/13 08:22:47;;;;;;;21.38;9.45;;;;;;;1.13;100.00;100678.06;6305703;28;20397;-72
2021/12/13 08:25:53;;;;;;;20.73;8.52;;;;;;;1.38;100.00;100681.19;6323751;28;20047;-73
2021/12/13 08:28:56;;;;;;;14.98;6.78;;;;;;;1.17;100.00;100671.16;6322205;28;20043;-72
2021/12/13 08:32:02;;;;;;;10.40;5.13;;;;;;;0.98;100.00;100681.66;6322223;28;20454;-72
2021/12/13 08:35:06;;;;;;;14.18;6.53;;;;;;;1.24;100.00;100674.53;6323380;28;20044;-72
2021/12/13 08:38:08;;;;;;;17.08;7.47;;;;;;;1.41;100.00;100675.97;6322243;28;20048;-74
2021/12/13 08:41:14;;;;;;;20.02;8.10;;;;;;;1.33;100.00;100685.50;6323301;28;20125;-74
2021/12/13 08:44:21;;;;;;;16.50;7.45;;;;;;;1.49;100.00;100680.19;6323375;28;20051;-74
2021/12/13 08:47:27;;;;;;;14.45;7.63;;;;;;;1.61;100.00;100682.59;6323008;28;20040;-73
2021/12/13 08:50:35;;;;;;;16.88;7.00;;;;;;;1.64;100.00;100672.25;6321996;28;20050;-73
2021/12/13 08:53:38;;;;;;;10.82;4.50;;;;;;;1.59;100.00;100669.75;6322936;28;20067;-73
2021/12/13 08:56:49;;;;;;;20.17;7.65;;;;;;;1.69;100.00;100680.75;6322985;28;20484;-73
2021/12/13 08:59:52;;;;;;;11.48;6.47;;;;;;;1.56;100.00;100686.94;6322824;28;20047;-74
2021/12/13 09:03:12;;;;;;;14.27;7.18;;;;;;;1.69;100.00;100675.63;6322782;28;20036;-73
2021/12/13 09:06:19;;;;;;;15.75;6.85;;;;;;;1.64;100.00;100671.41;6322602;28;20052;-74
2021/12/13 09:09:20;;;;;;;13.80;7.05;;;;;;;1.57;100.00;100676.63;6321244;28;20472;-73
2021/12/13 09:12:30;;;;;;;15.77;6.97;;;;;;;1.63;100.00;100678.28;6321315;28;20046;-72
2021/12/13 09:15:33;;;;;;;13.18;6.93;;;;;;;1.66;100.00;100677.38;6322441;28;20055;-73
2021/12/13 09:18:34;;;;;;;14.02;7.43;;;;;;;1.77;100.00;100680.63;6320967;28;20052;-72
2021/12/13 09:21:51;;;;;;;15.65;8.10;;;;;;;1.69;100.00;100685.03;6322295;28;20550;-73
2021/12/13 09:25:13;;;;;;;13.68;7.68;;;;;;;1.55;100.00;100680.94;6322377;28;20502;-73
2021/12/13 09:28:23;;;;;;;13.25;6.68;;;;;;;1.30;100.00;100688.13;6322026;28;20488;-73
2021/12/13 09:31:28;;;;;;;16.45;7.13;;;;;;;1.43;100.00;100685.41;6321811;28;20052;-74
2021/12/13 09:34:28;;;;;;;16.10;7.10;;;;;;;1.51;100.00;100683.59;6322046;28;20400;-73
2021/12/13 09:37:34;;;;;;;14.43;7.43;;;;;;;1.67;100.00;100684.19;6303174;28;20040;-74
2021/12/13 09:40:39;;;;;;;17.63;7.57;;;;;;;1.85;100.00;100689.06;6299358;28;20358;-74
2021/12/13 09:44:02;;;;;;;15.45;7.60;;;;;;;2.00;100.00;100683.72;6321884;28;20040;-73
2021/12/13 09:47:13;;;;;;;13.52;7.50;;;;;;;2.16;100.00;100686.03;6317560;28;20047;-74
2021/12/13 09:50:23;;;;;;;15.38;7.22;;;;;;;1.91;100.00;100680.41;6303536;28;20124;-74
2021/12/13 09:53:31;;;;;;;17.40;7.72;;;;;;;2.12;100.00;100677.53;6303375;28;20124;-74
2021/12/13 09:56:36;;;;;;;15.23;7.93;;;;;;;2.05;100.00;100675.06;6296556;28;20482;-74
2021/12/13 09:59:41;;;;;;;20.23;7.55;;;;;;;2.00;100.00;100685.44;6307294;28;20484;-74
2021/12/13 10:02:47;;;;;;;15.18;7.43;;;;;;;2.24;100.00;100678.19;6303575;28;20042;-74
2021/12/13 10:05:51;;;;;;;15.45;6.78;;;;;;;2.17;100.00;100675.72;6305856;28;20071;-74
2021/12/13 10:08:59;;;;;;;18.42;7.80;;;;;;;2.12;100.00;100676.66;6308465;28;20412;-74
2021/12/13 10:12:07;;;;;;;14.27;6.75;;;;;;;2.01;100.00;100675.09;6306410;28;20494;-74
2021/12/13 10:15:12;;;;;;;13.82;6.85;;;;;;;2.15;100.00;100692.06;6310882;28;20062;-74
2021/12/13 10:18:21;;;;;;;14.95;6.90;;;;;;;2.04;100.00;100687.09;6306462;28;20723;-74
2021/12/13 10:21:35;;;;;;;16.25;7.30;;;;;;;2.27;100.00;100679.00;6300034;28;20131;-73
2021/12/13 10:24:43;;;;;;;18.33;7.80;;;;;;;2.41;100.00;100686.50;6308143;28;20045;-73
2021/12/13 10:27:45;;;;;;;13.15;6.25;;;;;;;2.13;100.00;100674.06;6312889;28;20036;-74
2021/12/13 10:30:53;;;;;;;12.85;6.65;;;;;;;2.31;100.00;100678.06;6288162;28;20084;-73
2021/12/13 10:33:57;;;;;;;14.20;6.85;;;;;;;2.07;100.00;100679.31;6306160;28;20263;-74
2021/12/13 10:37:12;;;;;;;16.63;6.82;;;;;;;2.25;100.00;100675.59;6307344;28;20033;-74
2021/12/13 10:40:25;;;;;;;12.70;6.05;;;;;;;1.95;100.00;100672.63;6294753;28;20238;-75
2021/12/13 10:43:38;;;;;;;10.95;5.85;;;;;;;2.15;100.00;100674.03;6312680;28;20093;-74
2021/12/13 10:46:42;;;;;;;;;;;;;;;2.32;100.00;100673.75;6321292;28;20050;-74
2021/12/13 10:49:47;;;;;;;17.55;6.93;;;;;;;2.14;100.00;100660.31;6300592;28;19921;-75
2021/12/13 10:52:51;;;;;;;13.32;6.50;;;;;;;2.24;100.00;100673.03;6295761;28;20052;-73
2021/12/13 10:55:58;;;;;;;18.38;6.57;;;;;;;2.28;100.00;100670.38;6295078;28;20500;-75
2021/12/13 10:59:04;;;;;;;16.42;7.22;;;;;;;2.48;100.00;100671.78;6319490;28;20040;-74
2021/12/13 11:02:16;;;;;;;14.90;7.43;;;;;;;2.56;100.00;100673.31;6319547;28;20404;-74
2021/12/13 11:05:20;;;;;;;12.40;6.20;;;;;;;2.83;97.10;100674.53;6329340;28;20039;-74
2021/12/13 11:08:22;;;;;;;18.98;7.38;;;;;;;2.94;97.40;100674.31;6295527;28;20070;-75
2021/12/13 11:11:23;;;;;;;16.95;6.63;;;;;;;2.91;94.91;100676.13;6295620;28;20130;-75
2021/12/13 11:14:25;;;;;;;11.90;5.70;;;;;;;2.70;96.85;100667.06;6295646;28;20377;-75
2021/12/13 11:17:28;;;;;;;18.00;6.00;;;;;;;2.79;95.51;100660.00;6307285;28;20131;-74
2021/12/13 11:20:37;;;;;;;16.27;7.10;;;;;;;3.10;95.91;100654.25;6320587;28;20130;-74
2021/12/13 11:23:38;;;;;;;19.10;8.43;;;;;;;3.13;93.97;100651.63;6320549;28;20044;-75
2021/12/13 11:26:43;;;;;;;18.52;7.53;;;;;;;3.32;90.71;100648.66;6319454;28;20040;-74
2021/12/13 11:29:45;;;;;;;15.80;7.43;;;;;;;3.63;90.71;100652.22;6320399;28;20123;-74
2021/12/13 11:32:58;;;;;;;18.73;7.95;;;;;;;3.22;91.79;100651.41;6319061;28;20052;-74
2021/12/13 11:36:08;;;;;;;16.63;7.20;;;;;;;2.86;93.60;100659.88;6320408;28;20468;-74
2021/12/13 11:39:47;;;;;;;17.13;8.05;;;;;;;2.66;96.20;100658.56;6320299;28;20048;-75
2021/12/13 11:43:14;;;;;;;16.35;8.00;;;;;;;2.29;97.82;100661.78;6302391;28;20110;-74
2021/12/13 11:46:28;;;;;;;20.08;8.25;;;;;;;2.33;99.24;100666.00;6299721;28;20041;-74
2021/12/13 11:49:48;;;;;;;16.98;8.48;;;;;;;2.58;97.19;100681.03;6298006;28;20479;-75
2021/12/13 11:53:18;;;;;;;15.85;8.10;;;;;;;2.89;96.78;100675.31;6299566;28;20488;-75
2021/12/13 11:56:41;;;;;;;12.30;6.70;;;;;;;2.94;96.61;100674.31;6299442;28;20072;-75
2021/12/13 12:00:00;;;;;;;;;;;;;;;2.99;95.69;100669.94;6299850;28;20047;-75
2021/12/13 12:03:38;;;;;;;15.98;7.75;;;;;;;3.03;94.38;100674.16;6298144;28;19921;-75
2021/12/13 12:07:13;;;;;;;20.98;9.07;;;;;;;3.31;94.51;100678.72;6299253;28;20041;-73
2021/12/13 12:10:25;;;;;;;18.67;7.93;;;;;;;3.18;95.09;100679.88;6299003;28;20037;-74
2021/12/13 12:13:41;;;;;;;16.75;8.65;;;;;;;2.99;96.85;100677.66;6299084;28;20090;-75
2021/12/13 12:16:47;;;;;;;15.65;7.22;;;;;;;2.97;98.57;100671.69;6297755;28;20036;-75
2021/12/13 12:19:49;;;;;;;18.65;9.10;;;;;;;3.02;95.98;100669.84;6297682;28;20484;-75
2021/12/13 12:22:56;;;;;;;19.80;8.70;;;;;;;3.10;97.77;100679.19;6281032;28;20048;-75
2021/12/13 12:26:00;;;;;;;16.58;8.07;;;;;;;2.76;100.00;100680.69;6298820;28;20362;-74
2021/12/13 12:29:09;;;;;;;15.52;8.18;;;;;;;2.92;100.00;100686.38;6297330;28;20044;-74
2021/12/13 12:32:19;;;;;;;17.80;9.43;;;;;;;2.85;100.00;100681.41;6305310;28;20419;-75
2021/12/13 12:35:25;;;;;;;15.73;8.65;;;;;;;2.85;100.00;100679.66;6323576;28;20064;-76
2021/12/13 12:38:45;;;;;;;17.60;8.88;;;;;;;2.58;100.00;100688.75;6323614;28;20051;-76
2021/12/13 12:42:27;;;;;;;18.48;9.70;;;;;;;2.73;100.00;100697.94;6313732;28;20040;-75
2021/12/13 12:45:36;;;;;;;18.52;9.38;;;;;;;2.61;100.00;100696.44;6224978;28;20049;-75
2021/12/13 12:48:43;;;;;;;19.50;8.63;;;;;;;2.79;100.00;100693.50;6298073;28;20048;-74
2021/12/13 12:51:44;;;;;;;19.20;9.45;;;;;;;2.79;100.00;100703.81;6300600;28;20044;-75
2021/12/13 12:54:45;;;;;;;18.90;9.73;;;;;;;2.73;100.00;100698.78;6315592;28;20047;-75
2021/12/13 12:57:46;;;;;;;20.27;10.88;;;;;;;2.60;100.00;100699.91;6299723;28;20477;-75
2021/12/13 13:00:50;;;;;;;21.17;11.07;;;;;;;2.76;100.00;100695.28;6323073;28;20040;-75
2021/12/13 13:03:52;;;;;;;22.77;11.00;;;;;;;2.80;100.00;100709.81;6302704;28;20037;-75
2021/12/13 13:07:25;;;;;;;25.60;11.65;;;;;;;2.66;100.00;100704.94;6280013;28;20041;-75
2021/12/13 13:13:43;;;;;;;22.67;11.48;;;;;;;2.88;100.00;100704.53;6322989;28;20047;-74
2021/12/13 13:16:47;;;;;;;20.73;10.43;;;;;;;2.76;100.00;100714.19;6304669;28;20408;-75
2021/12/13 13:20:01;;;;;;;15.32;8.88;;;;;;;2.70;100.00;100713.44;6317834;28;20060;-75
2021/12/13 13:23:03;;;;;;;21.33;9.98;;;;;;;2.57;100.00;100715.38;6308172;28;20049;-74
2021/12/13 13:26:05;;;;;;;26.10;12.63;;;;;;;2.62;100.00;100714.44;6279796;28;20052;-75
2021/12/13 13:29:07;;;;;;;26.60;12.60;;;;;;;2.70;99.88;100711.72;6296871;28;20041;-74
2021/12/13 13:32:12;;;;;;;22.40;9.80;;;;;;;2.63;99.61;100717.84;6296955;28;20083;-74
2021/12/13 13:35:15;;;;;;;20.65;9.10;;;;;;;2.68;100.00;100723.78;6297328;28;20044;-74
2021/12/13 13:38:17;;;;;;;15.05;7.65;;;;;;;2.70;100.00;100723.75;6295846;28;20132;-75
2021/12/13 13:41:20;;;;;;;14.15;7.50;;;;;;;2.63;100.00;100723.00;6296885;28;20072;-75
2021/12/13 13:44:25;;;;;;;15.80;7.35;;;;;;;2.52;98.94;100724.94;6295803;28;20045;-75
2021/12/13 13:47:31;;;;;;;17.92;8.25;;;;;;;2.66;98.90;100728.13;6296697;28;20046;-75
2021/12/13 13:50:38;;;;;;;12.85;6.60;;;;;;;2.68;99.93;100726.38;6318611;28;20100;-75
2021/12/13 13:53:47;;;;;;;15.63;7.70;;;;;;;2.67;100.00;100727.25;6321914;28;20036;-75
2021/12/13 13:56:48;;;;;;;20.85;8.98;;;;;;;2.61;100.00;100725.63;6320654;28;20501;-75
2021/12/13 13:59:50;;;;;;;16.92;8.82;;;;;;;2.64;100.00;100727.31;6321650;28;20048;-75
2021/12/13 14:02:51;;;;;;;19.30;9.32;;;;;;;2.60;100.00;100723.09;6321625;28;20040;-75
2021/12/13 14:05:54;;;;;;;17.67;8.38;;;;;;;2.52;100.00;100733.50;6319679;28;20044;-74
2021/12/13 14:09:07;;;;;;;18.48;10.10;;;;;;;2.55;100.00;100730.03;6321308;28;20445;-75
2021/12/13 14:12:13;;;;;;;24.45;12.95;;;;;;;2.53;100.00;100732.66;6314195;28;20052;-75
2021/12/13 14:15:31;;;;;;;33.13;13.82;;;;;;;2.51;100.00;100730.94;6310494;28;20408;-75
2021/12/13 14:18:33;;;;;;;31.70;16.25;;;;;;;2.49;100.00;100731.00;6305158;28;20044;-75
2021/12/13 14:21:36;;;;;;;36.30;16.90;;;;;;;2.49;100.00;100732.69;6303717;28;20044;-74
2021/12/13 14:24:45;;;;;;;29.15;14.50;;;;;;;2.50;100.00;100737.00;6311400;28;20127;-75
2021/12/13 14:27:47;;;;;;;30.20;14.50;;;;;;;2.49;100.00;100730.13;6294903;28;20397;-74
2021/12/13 14:30:51;;;;;;;24.73;12.30;;;;;;;2.49;100.00;100740.44;6295951;28;20060;-75
2021/12/13 14:34:05;;;;;;;20.48;11.68;;;;;;;2.48;100.00;100743.91;6296103;28;20051;-75
2021/12/13 14:37:07;;;;;;;22.90;11.95;;;;;;;2.45;100.00;100749.97;6294973;28;20451;-75